Aérodrome :
LOGIN :

S'inscrire | Disclaimer

   EN    FR    IT 

 










Légende :    VFR   VFR Marginal   IFR   IFR Intensif   IFR Très Intensif
Visi : 
Plafond : 
>= 8 km
>= 3000ft
5 à 8 km
1000 à 3000 ft
1500m à 5 km
500 à 1000 ft
800 à 1500m
200 à 500 ft
< 800m
< 200 ft
Symboles :   Orages  Brouillard  Fortes neiges  Fortes précipitations  Vent > 20 kt
SIGMETs :   Divers  Orages  Givrage  Turbulence  Onde Orograph.  Cendres Volcan.







- Altitude de l'aérodrome : 51 ft
- Code IATA : GWT


EDXW - Westerland-Sylt Island

DERNIER METAR :
  • 221220Z 22019KT 4400 BR SCT007 BKN009 11/11 Q0999

METARs EXPIRÉS :
  • 221150Z 23018KT 3800 -DZ BR OVC006 11/11 Q0999
  • 221120Z 22017KT 3600 -RA BR OVC005 11/11 Q0999
  • 221050Z 22016KT 2300 -RA BR OVC003 11/11 Q0999
  • 221020Z 22018KT 2300 BR OVC002 11/11 Q0999
  • 220950Z 22018KT 2500 BR OVC003 11/11 Q0999

TAF TAF EDXW
Valide du 22 à 12h jusqu'au 22 à 18h UTC


221100Z 2212/2218 21020KT 6000 BKN015
TEMPO 2212/2215 2000 -DZ BR BKN002
TEMPO 2215/2218 BKN012
Pas de NOTAMs connus pour ce terrain.



MET'MAP, la Météo Aéronautique d'un coup d'oeil ! - Copyright ORBIFLY Décembre 2007 - Disclaimer

ORBIFLY MET'MAP TEAM :

Programmation & Développement : Alexandra Zaïnal
Conception & Développement : Baudouin d'Aumeries
Co-Programmation & Développement : Marc-Olivier Méhu
Soutien technique & logistique : Manuel Goepfert

Contact : metmap@orbifly.com




SOURCES & CREDITS :

   NOAA